createdAt,value
2023-06-05T00:01:52.425Z,100993.37
2023-06-05T00:04:24.385Z,100991.80
2023-06-05T00:06:53.691Z,100996.05
2023-06-05T00:09:24.542Z,100998.92
2023-06-05T00:11:54.562Z,100994.80
2023-06-05T00:14:25.216Z,100994.88
2023-06-05T00:16:54.399Z,100996.58
2023-06-05T00:19:23.032Z,100990.42
2023-06-05T00:21:54.258Z,100992.52
2023-06-05T00:24:23.533Z,100995.68
2023-06-05T00:26:52.522Z,100991.19
2023-06-05T00:29:21.830Z,100988.18
2023-06-05T00:31:50.794Z,100987.70
2023-06-05T00:34:19.346Z,100994.05
2023-06-05T00:36:50.728Z,100990.45
2023-06-05T00:39:19.733Z,100991.83
2023-06-05T00:41:48.916Z,100992.55
2023-06-05T00:44:19.329Z,100993.35
2023-06-05T00:46:49.559Z,100990.67
2023-06-05T00:49:18.449Z,100986.59
2023-06-05T00:51:48.034Z,100986.06
2023-06-05T00:54:16.557Z,100980.36
2023-06-05T00:56:45.844Z,100990.84
2023-06-05T00:59:14.856Z,100981.08
2023-06-05T01:01:43.674Z,100985.94
2023-06-05T01:04:12.425Z,100983.58
2023-06-05T01:06:44.602Z,100985.75
2023-06-05T01:09:14.654Z,100984.84
2023-06-05T01:12:18.339Z,100980.79
2023-06-05T01:14:49.091Z,100986.29
2023-06-05T01:17:19.695Z,100980.06
2023-06-05T01:19:50.320Z,100988.64
2023-06-05T01:22:19.203Z,100986.69
2023-06-05T01:24:48.334Z,100986.09
2023-06-05T01:27:36.280Z,100991.66
2023-06-05T01:30:16.617Z,100990.62
2023-06-05T01:32:58.093Z,100996.51
2023-06-05T01:35:28.457Z,100991.80
2023-06-05T01:37:59.248Z,100983.81
2023-06-05T01:40:27.865Z,100981.32
2023-06-05T01:42:57.076Z,100988.16
2023-06-05T01:45:26.159Z,100988.22
2023-06-05T01:47:57.811Z,100991.67
2023-06-05T01:50:28.808Z,100983.05
2023-06-05T01:52:57.846Z,100988.48
2023-06-05T01:55:27.677Z,100986.23
2023-06-05T01:57:56.972Z,100989.63
2023-06-05T02:00:25.773Z,100984.46
2023-06-05T02:02:54.700Z,100985.18
2023-06-05T02:05:23.640Z,100982.95
2023-06-05T02:07:55.295Z,100985.70
2023-06-05T02:10:24.685Z,100984.16
2023-06-05T02:12:53.405Z,100985.20
2023-06-05T02:15:23.087Z,100985.08
2023-06-05T02:17:53.369Z,100982.39
2023-06-05T02:20:29.094Z,100987.29
2023-06-05T02:22:59.703Z,100986.77
2023-06-05T02:25:29.209Z,100995.47
2023-06-05T02:27:58.100Z,100984.29
2023-06-05T02:30:27.468Z,100990.11
2023-06-05T02:33:01.905Z,100988.16
2023-06-05T02:35:32.124Z,100996.50
2023-06-05T02:38:00.667Z,100988.78
2023-06-05T02:40:30.198Z,100990.19
2023-06-05T02:42:58.965Z,100988.67
2023-06-05T02:45:27.524Z,100991.81
2023-06-05T02:47:56.738Z,100988.88
2023-06-05T02:50:25.751Z,100987.17
2023-06-05T02:52:57.169Z,100985.41
2023-06-05T02:55:29.553Z,100984.16
2023-06-05T02:57:59.045Z,100980.67
2023-06-05T03:00:29.803Z,100983.22
2023-06-05T03:03:01.383Z,100982.50
2023-06-05T03:05:31.692Z,100985.05
2023-06-05T03:08:02.239Z,100983.68
2023-06-05T03:10:31.791Z,100985.31
2023-06-05T03:13:00.944Z,100983.16
2023-06-05T03:15:31.525Z,100982.63
2023-06-05T03:18:00.276Z,100983.81
2023-06-05T03:20:30.166Z,100982.95
2023-06-05T03:22:58.962Z,100983.94
2023-06-05T03:25:28.618Z,100980.92
2023-06-05T03:27:58.887Z,100978.44
2023-06-05T03:30:30.114Z,100982.16
2023-06-05T03:33:02.504Z,100984.19
2023-06-05T03:35:33.579Z,100981.30
2023-06-05T03:38:04.474Z,100985.94
2023-06-05T03:40:33.510Z,100988.38
2023-06-05T03:43:02.572Z,100987.17
2023-06-05T03:45:37.526Z,100987.78
2023-06-05T03:48:07.832Z,100993.98
2023-06-05T03:50:42.359Z,100990.55
2023-06-05T03:53:12.768Z,100986.91
2023-06-05T03:55:49.600Z,100992.69
2023-06-05T03:58:20.408Z,100985.47
2023-06-05T04:00:51.310Z,100985.62
2023-06-05T04:03:22.618Z,100978.03
2023-06-05T04:05:53.192Z,100986.77
2023-06-05T04:08:22.135Z,100980.55
2023-06-05T04:10:51.628Z,100977.08
2023-06-05T04:13:22.552Z,100979.97
2023-06-05T04:15:51.313Z,100978.43
2023-06-05T04:18:20.133Z,100985.55
2023-06-05T04:20:49.546Z,100982.52
2023-06-05T04:23:20.026Z,100985.61
2023-06-05T04:25:50.288Z,100985.94
2023-06-05T04:28:19.697Z,100987.55
2023-06-05T04:30:48.522Z,100984.27
2023-06-05T04:33:18.395Z,100985.44
2023-06-05T04:35:48.618Z,100985.55
2023-06-05T04:38:19.275Z,100980.91
2023-06-05T04:40:51.281Z,100988.23
2023-06-05T04:43:19.825Z,100986.62
2023-06-05T04:45:51.008Z,100982.87
2023-06-05T04:48:21.157Z,100988.50
2023-06-05T04:50:50.609Z,100987.84
2023-06-05T04:53:20.009Z,100984.38
2023-06-05T04:55:49.606Z,100983.01
2023-06-05T04:58:20.660Z,100981.95
2023-06-05T05:00:50.264Z,100986.23
2023-06-05T05:03:20.267Z,100987.77
2023-06-05T05:05:49.258Z,100986.01
2023-06-05T05:08:18.181Z,100983.16
2023-06-05T05:10:47.650Z,100989.17
2023-06-05T05:13:16.151Z,100980.91
2023-06-05T05:15:47.939Z,100979.92
2023-06-05T05:18:17.326Z,100978.81
2023-06-05T05:20:47.249Z,100979.71
2023-06-05T05:23:18.979Z,100978.78
2023-06-05T05:25:47.757Z,100979.13
2023-06-05T05:28:16.401Z,100982.69
2023-06-05T05:30:46.378Z,100983.38
2023-06-05T05:33:16.495Z,100981.83
2023-06-05T05:35:47.158Z,100986.91
2023-06-05T05:38:16.788Z,100983.69
2023-06-05T05:40:45.337Z,100985.06
2023-06-05T05:43:14.017Z,100981.02
2023-06-05T05:45:44.585Z,100986.23
2023-06-05T05:48:13.753Z,100976.78
2023-06-05T05:50:42.980Z,100982.52
2023-06-05T05:53:11.614Z,100982.92
2023-06-05T05:55:40.201Z,100977.17
2023-06-05T05:58:09.041Z,100979.02
2023-06-05T06:00:38.504Z,100978.94
2023-06-05T06:03:08.353Z,100978.80
2023-06-05T06:05:38.335Z,100976.41
2023-06-05T06:08:07.369Z,100972.93
2023-06-05T06:10:37.162Z,100975.89
2023-06-05T06:13:06.557Z,100972.09
2023-06-05T06:15:35.180Z,100968.77
2023-06-05T06:18:04.799Z,100971.88
2023-06-05T06:20:35.456Z,100971.65
2023-06-05T06:23:04.302Z,100974.17
2023-06-05T06:25:33.217Z,100971.41
2023-06-05T06:28:02.070Z,100969.44
2023-06-05T06:30:32.790Z,100971.98
2023-06-05T06:33:01.862Z,100974.20
2023-06-05T06:35:32.562Z,100975.05
2023-06-05T06:38:01.080Z,100973.34
2023-06-05T06:40:30.015Z,100979.52
2023-06-05T06:42:58.997Z,100969.36
2023-06-05T06:45:36.248Z,100976.67
2023-06-05T06:48:08.606Z,100978.06
2023-06-05T06:50:37.470Z,100975.51
2023-06-05T06:53:06.547Z,100972.41
2023-06-05T06:55:35.854Z,100974.33
2023-06-05T06:58:06.594Z,100975.97
2023-06-05T07:00:35.778Z,100977.54
2023-06-05T07:03:05.066Z,100981.34
2023-06-05T07:05:34.414Z,100981.34
2023-06-05T07:08:04.179Z,100981.88
2023-06-05T07:10:32.788Z,100983.83
2023-06-05T07:13:01.328Z,100978.90
2023-06-05T07:15:30.688Z,100978.90
2023-06-05T07:18:00.566Z,100974.05
2023-06-05T07:20:29.975Z,100969.19
2023-06-05T07:23:01.382Z,100971.41
2023-06-05T07:25:30.471Z,100964.38
2023-06-05T07:28:00.891Z,100968.23
2023-06-05T07:30:30.223Z,100962.75
2023-06-05T07:32:59.390Z,100971.33
2023-06-05T07:35:29.433Z,100974.55
2023-06-05T07:37:58.396Z,100969.45
2023-06-05T07:40:27.272Z,100967.16
2023-06-05T07:42:56.665Z,100968.83
2023-06-05T07:45:25.488Z,100965.13
2023-06-05T07:47:54.536Z,100966.50
2023-06-05T07:50:26.560Z,100968.38
2023-06-05T07:52:55.251Z,100976.66
2023-06-05T07:55:24.039Z,100971.12
2023-06-05T07:57:53.474Z,100974.21
2023-06-05T08:00:22.931Z,100975.89
2023-06-05T08:02:52.162Z,100973.33
2023-06-05T08:05:21.201Z,100972.98
2023-06-05T08:07:50.750Z,100979.95
2023-06-05T08:10:19.371Z,100980.52
2023-06-05T08:12:48.211Z,100971.35
2023-06-05T08:15:17.030Z,100973.09
2023-06-05T08:17:45.699Z,100968.89
2023-06-05T08:20:16.448Z,100968.56
2023-06-05T08:22:45.920Z,100971.89
2023-06-05T08:25:14.621Z,100976.97
2023-06-05T08:27:42.991Z,100966.62
2023-06-05T08:30:13.096Z,100974.20
2023-06-05T08:32:44.082Z,100967.72
2023-06-05T08:35:16.279Z,100977.27
2023-06-05T08:37:44.820Z,100976.15
2023-06-05T08:40:15.800Z,100976.17
2023-06-05T08:42:45.905Z,100979.53
2023-06-05T08:45:15.193Z,100972.25
2023-06-05T08:47:44.545Z,100975.34
2023-06-05T08:50:13.284Z,100967.44
2023-06-05T08:52:42.347Z,100966.31
2023-06-05T08:55:14.010Z,100976.63
2023-06-05T08:57:43.736Z,100978.29
2023-06-05T09:00:15.407Z,100970.41
2023-06-05T09:02:44.530Z,100968.99
2023-06-05T09:05:14.631Z,100964.44
2023-06-05T09:07:44.945Z,100964.78
2023-06-05T09:10:26.015Z,100962.87
2023-06-05T09:13:00.613Z,100955.66
2023-06-05T09:15:35.116Z,100955.39
2023-06-05T09:18:11.199Z,100953.17
2023-06-05T09:20:41.647Z,100959.34
2023-06-05T09:23:29.345Z,100956.82
2023-06-05T09:26:01.139Z,100950.94
2023-06-05T09:28:32.420Z,100948.98
2023-06-05T09:31:05.634Z,100950.34
2023-06-05T09:33:35.778Z,100945.02
2023-06-05T09:36:12.539Z,100942.50
2023-06-05T09:38:42.670Z,100948.38
2023-06-05T09:41:12.808Z,100940.24
2023-06-05T09:43:42.610Z,100941.05
2023-06-05T09:46:15.317Z,100943.84
2023-06-05T09:48:57.894Z,100942.16
2023-06-05T09:51:27.076Z,100939.06
2023-06-05T09:53:55.644Z,100937.38
2023-06-05T09:56:24.985Z,100931.77
2023-06-05T09:58:53.848Z,100928.68
2023-06-05T10:01:27.815Z,100930.08
2023-06-05T10:04:04.337Z,100933.42
2023-06-05T10:06:34.447Z,100925.56
2023-06-05T10:09:03.745Z,100928.36
2023-06-05T10:11:32.757Z,100931.95
2023-06-05T10:14:02.239Z,100933.07
2023-06-05T10:16:32.163Z,100929.42
2023-06-05T10:19:01.457Z,100928.30
2023-06-05T10:21:30.827Z,100923.27
2023-06-05T10:24:06.707Z,100918.80
2023-06-05T10:27:13.035Z,100919.95
2023-06-05T10:30:27.332Z,100917.40
2023-06-05T10:33:34.220Z,100914.87
2023-06-05T10:36:17.296Z,100908.19
2023-06-05T10:38:46.503Z,100903.16
2023-06-05T10:41:15.697Z,100904.01
2023-06-05T10:43:56.268Z,100907.09
2023-06-05T10:46:36.766Z,100912.44
2023-06-05T10:49:21.224Z,100907.95
2023-06-05T10:51:58.427Z,100913.00
2023-06-05T10:54:42.132Z,100905.72
2023-06-05T10:57:11.425Z,100897.02
2023-06-05T10:59:43.061Z,100899.54
2023-06-05T11:02:17.521Z,100890.30
2023-06-05T11:04:52.077Z,100887.78
2023-06-05T11:07:29.093Z,100884.98
2023-06-05T11:10:23.719Z,100881.63
2023-06-05T11:12:57.555Z,100888.06
2023-06-05T11:15:42.314Z,100882.74
2023-06-05T11:18:32.231Z,100885.83
2023-06-05T11:21:01.551Z,100884.70
2023-06-05T11:23:31.258Z,100885.83
2023-06-05T11:26:23.087Z,100878.53
2023-06-05T11:28:53.191Z,100876.01
2023-06-05T11:31:31.956Z,100867.03
2023-06-05T11:34:00.853Z,100860.59
2023-06-05T11:36:30.411Z,100861.43
2023-06-05T11:38:59.240Z,100862.00
2023-06-05T11:41:28.228Z,100867.61
2023-06-05T11:43:59.827Z,100860.05
2023-06-05T11:46:43.471Z,100857.25
2023-06-05T11:49:27.768Z,100860.89
2023-06-05T11:51:56.633Z,100865.66
2023-06-05T11:54:29.960Z,100858.92
2023-06-05T11:57:00.602Z,100871.55
2023-06-05T11:59:29.904Z,100864.53
2023-06-05T12:01:59.111Z,100863.41
2023-06-05T12:04:28.441Z,100861.16
2023-06-05T12:06:58.246Z,100857.52
2023-06-05T12:09:27.623Z,100858.92
2023-06-05T12:12:09.017Z,100856.97
2023-06-05T12:14:39.272Z,100856.97
2023-06-05T12:17:12.466Z,100857.24
2023-06-05T12:19:42.008Z,100853.03
2023-06-05T12:22:12.433Z,100856.66
2023-06-05T12:24:41.228Z,100861.14
2023-06-05T12:27:10.475Z,100852.70
2023-06-05T12:29:40.895Z,100849.34
2023-06-05T12:32:26.367Z,100855.53
2023-06-05T12:35:01.314Z,100852.42
2023-06-05T12:37:30.465Z,100857.78
2023-06-05T12:40:00.145Z,100847.42
2023-06-05T12:42:29.483Z,100852.18
2023-06-05T12:44:59.611Z,100851.58
2023-06-05T12:47:28.512Z,100846.81
2023-06-05T12:49:59.313Z,100843.17
2023-06-05T12:52:28.341Z,100840.93
2023-06-05T12:54:58.361Z,100838.41
2023-06-05T12:57:27.295Z,100840.93
2023-06-05T12:59:56.802Z,100835.94
2023-06-05T13:02:26.176Z,100839.59
2023-06-05T13:04:56.159Z,100833.43
2023-06-05T13:07:25.814Z,100834.83
2023-06-05T13:09:56.217Z,100830.63
2023-06-05T13:12:25.298Z,100835.11
2023-06-05T13:14:54.357Z,100835.11
2023-06-05T13:17:23.911Z,100824.75
2023-06-05T13:19:53.877Z,100827.83
2023-06-05T13:22:23.657Z,100819.42
2023-06-05T13:24:53.102Z,100817.73
2023-06-05T13:27:22.026Z,100827.27
2023-06-05T13:29:50.957Z,100828.11
2023-06-05T13:32:20.464Z,100829.50
2023-06-05T13:34:49.554Z,100828.66
2023-06-05T13:37:18.795Z,100831.74
2023-06-05T13:39:48.368Z,100828.94
2023-06-05T13:42:17.352Z,100825.02
2023-06-05T13:44:46.657Z,100821.38
2023-06-05T13:47:15.869Z,100820.53
2023-06-05T13:49:44.617Z,100814.38
2023-06-05T13:52:13.548Z,100815.21
2023-06-05T13:54:44.349Z,100809.61
2023-06-05T13:57:13.577Z,100812.41
2023-06-05T13:59:43.075Z,100810.17
2023-06-05T14:02:12.715Z,100810.73
2023-06-05T14:04:41.428Z,100808.77
2023-06-05T14:07:10.137Z,100807.38
2023-06-05T14:09:39.339Z,100801.77
2023-06-05T14:12:10.800Z,100797.84
2023-06-05T14:14:43.505Z,100795.61
2023-06-05T14:17:12.408Z,100796.16
2023-06-05T14:19:41.592Z,100789.16
2023-06-05T14:22:11.703Z,100791.41
2023-06-05T14:24:42.141Z,100796.16
2023-06-05T14:27:14.319Z,100791.37
2023-06-05T14:29:43.201Z,100793.88
2023-06-05T14:32:12.425Z,100793.88
2023-06-05T14:34:41.087Z,100790.23
2023-06-05T14:37:09.859Z,100790.48
2023-06-05T14:39:38.334Z,100785.72
2023-06-05T14:42:08.517Z,100782.92
2023-06-05T14:44:38.460Z,100782.67
2023-06-05T14:47:08.210Z,100782.67
2023-06-05T14:49:36.765Z,100783.23
2023-06-05T14:52:06.491Z,100779.59
2023-06-05T14:54:35.291Z,100780.44
2023-06-05T14:57:04.251Z,100770.92
2023-06-05T14:59:34.201Z,100773.72
2023-06-05T15:02:03.568Z,100763.63
2023-06-05T15:04:33.730Z,100764.72
2023-06-05T15:07:02.630Z,100768.92
2023-06-05T15:09:31.540Z,100767.80
2023-06-05T15:12:01.140Z,100768.08
2023-06-05T15:14:29.959Z,100761.08
2023-06-05T15:16:58.808Z,100762.19
2023-06-05T15:19:27.231Z,100763.59
2023-06-05T15:21:56.205Z,100763.59
2023-06-05T15:24:24.786Z,100766.66
2023-06-05T15:26:53.238Z,100761.06
2023-06-05T15:29:21.893Z,100768.34
2023-06-05T15:31:50.691Z,100763.57
2023-06-05T15:34:19.291Z,100769.72
2023-06-05T15:36:48.276Z,100766.09
2023-06-05T15:39:17.427Z,100774.21
2023-06-05T15:41:46.406Z,100771.97
2023-06-05T15:44:15.983Z,100772.23
2023-06-05T15:46:46.030Z,100773.36
2023-06-05T15:49:14.695Z,100775.33
2023-06-05T15:51:43.282Z,100775.88
2023-06-05T15:54:31.176Z,100773.09
2023-06-05T15:56:45.686Z,100772.80
2023-06-05T15:59:14.461Z,100773.64
2023-06-05T16:01:43.414Z,100771.39
2023-06-05T16:04:12.382Z,100776.70
2023-06-05T16:06:44.144Z,100776.69
2023-06-05T16:09:13.599Z,100766.33
2023-06-05T16:11:42.651Z,100773.59
2023-06-05T16:14:11.925Z,100765.75
2023-06-05T16:16:40.578Z,100773.30
2023-06-05T16:19:09.553Z,100763.45
2023-06-05T16:21:38.870Z,100769.04
2023-06-05T16:24:08.646Z,100770.70
2023-06-05T16:26:39.053Z,100775.97
2023-06-05T16:29:07.759Z,100772.05
2023-06-05T16:31:37.668Z,100770.64
2023-06-05T16:34:13.062Z,100773.16
2023-06-05T16:36:41.923Z,100768.95
2023-06-05T16:39:12.048Z,100763.92
2023-06-05T16:41:41.205Z,100760.83
2023-06-05T16:44:13.727Z,100769.49
2023-06-05T16:46:44.489Z,100771.72
2023-06-05T16:49:13.150Z,100764.73
2023-06-05T16:51:41.899Z,100767.25
2023-06-05T16:54:12.438Z,100767.80
2023-06-05T16:56:41.424Z,100770.04
2023-06-05T16:59:15.275Z,100765.29
2023-06-05T17:01:45.085Z,100763.05
2023-06-05T17:04:16.930Z,100759.69
2023-06-05T17:06:49.418Z,100764.98
2023-06-05T17:09:19.612Z,100761.06
2023-06-05T17:11:48.410Z,100759.66
2023-06-05T17:14:18.068Z,100763.55
2023-06-05T17:16:46.549Z,100761.28
2023-06-05T17:19:16.443Z,100762.66
2023-06-05T17:21:46.326Z,100764.86
2023-06-05T17:24:15.149Z,100759.20
2023-06-05T17:26:44.063Z,100764.94
2023-06-05T17:29:12.813Z,100769.91
2023-06-05T17:31:41.990Z,100771.47
2023-06-05T17:34:11.519Z,100772.73
2023-06-05T17:36:40.344Z,100768.97
2023-06-05T17:39:09.053Z,100768.20
2023-06-05T17:41:39.736Z,100773.13
2023-06-05T17:44:08.620Z,100769.69
2023-06-05T17:46:37.251Z,100769.32
2023-06-05T17:49:07.614Z,100777.61
2023-06-05T17:51:37.928Z,100777.17
2023-06-05T17:54:06.903Z,100770.86
2023-06-05T17:56:37.786Z,100780.75
2023-06-05T17:59:07.748Z,100780.62
2023-06-05T18:01:37.611Z,100783.92
2023-06-05T18:04:06.576Z,100777.14
2023-06-05T18:06:37.080Z,100782.03
2023-06-05T18:09:06.026Z,100787.46
2023-06-05T18:11:35.241Z,100787.80
2023-06-05T18:14:06.909Z,100788.73
2023-06-05T18:16:37.383Z,100793.85
2023-06-05T18:19:06.873Z,100793.69
2023-06-05T18:21:37.789Z,100795.00
2023-06-05T18:24:06.604Z,100799.09
2023-06-05T18:26:35.580Z,100803.19
2023-06-05T18:29:05.379Z,100805.84
2023-06-05T18:31:34.296Z,100796.94
2023-06-05T18:34:03.620Z,100805.60
2023-06-05T18:36:32.677Z,100807.80
2023-06-05T18:39:01.787Z,100811.48
2023-06-05T18:41:31.044Z,100813.31
2023-06-05T18:44:02.058Z,100819.97
2023-06-05T18:46:31.478Z,100817.19
2023-06-05T18:49:03.368Z,100818.72
2023-06-05T18:51:32.185Z,100820.73
2023-06-05T18:54:01.169Z,100823.90
2023-06-05T18:56:31.496Z,100824.28
2023-06-05T18:59:00.184Z,100826.70
2023-06-05T19:01:29.677Z,100826.05
2023-06-05T19:03:58.532Z,100828.61
2023-06-05T19:06:29.232Z,100828.19
2023-06-05T19:08:57.783Z,100829.77
2023-06-05T19:11:27.499Z,100823.25
2023-06-05T19:13:56.288Z,100829.72
2023-06-05T19:16:26.181Z,100831.44
2023-06-05T19:18:55.113Z,100828.78
2023-06-05T19:21:24.191Z,100830.30
2023-06-05T19:23:52.728Z,100830.47
2023-06-05T19:26:22.431Z,100827.88
2023-06-05T19:28:52.522Z,100827.59
2023-06-05T19:31:21.582Z,100824.63
2023-06-05T19:33:50.656Z,100831.20
2023-06-05T19:36:19.400Z,100833.91
2023-06-05T19:38:49.144Z,100827.14
2023-06-05T19:41:17.933Z,100830.27
2023-06-05T19:43:50.374Z,100834.91
2023-06-05T19:46:19.276Z,100829.46
2023-06-05T19:48:50.097Z,100831.56
2023-06-05T19:51:19.251Z,100834.20
2023-06-05T19:53:47.794Z,100834.59
2023-06-05T19:56:17.508Z,100831.69
2023-06-05T19:58:46.502Z,100834.15
2023-06-05T20:01:15.530Z,100832.16
2023-06-05T20:03:44.225Z,100830.02
2023-06-05T20:06:12.819Z,100833.11
2023-06-05T20:08:41.417Z,100832.56
2023-06-05T20:11:10.423Z,100828.47
2023-06-05T20:13:39.973Z,100833.17
2023-06-05T20:16:08.949Z,100828.09
2023-06-05T20:18:39.103Z,100830.48
2023-06-05T20:21:08.558Z,100831.09
2023-06-05T20:23:37.686Z,100832.95
2023-06-05T20:26:08.498Z,100835.95
2023-06-05T20:28:37.808Z,100834.48
2023-06-05T20:31:07.556Z,100840.41
2023-06-05T20:33:39.385Z,100836.09
2023-06-05T20:36:10.954Z,100848.86
2023-06-05T20:38:40.379Z,100842.55
2023-06-05T20:41:13.625Z,100838.62
2023-06-05T20:43:44.192Z,100844.16
2023-06-05T20:46:14.042Z,100843.84
2023-06-05T20:48:46.146Z,100846.70
2023-06-05T20:51:16.928Z,100841.63
2023-06-05T20:53:47.406Z,100849.73
2023-06-05T20:56:27.486Z,100854.03
2023-06-05T20:58:56.276Z,100852.48
2023-06-05T21:01:27.161Z,100849.24
2023-06-05T21:03:55.866Z,100850.23
2023-06-05T21:06:24.521Z,100851.93
2023-06-05T21:08:54.966Z,100852.23
2023-06-05T21:11:23.957Z,100856.53
2023-06-05T21:13:52.562Z,100858.62
2023-06-05T21:16:21.445Z,100860.68
2023-06-05T21:18:49.967Z,100857.91
2023-06-05T21:21:18.754Z,100860.91
2023-06-05T21:23:48.299Z,100863.90
2023-06-05T21:26:17.689Z,100861.81
2023-06-05T21:28:46.953Z,100867.17
2023-06-05T21:31:15.614Z,100863.02
2023-06-05T21:33:44.460Z,100864.00
2023-06-05T21:36:13.438Z,100869.67
2023-06-05T21:38:42.327Z,100868.73
2023-06-05T21:41:11.252Z,100868.53
2023-06-05T21:43:40.499Z,100871.03
2023-06-05T21:46:09.210Z,100866.48
2023-06-05T21:48:37.846Z,100866.70
2023-06-05T21:51:06.672Z,100871.92
2023-06-05T21:53:36.472Z,100871.83
2023-06-05T21:56:05.049Z,100871.11
2023-06-05T21:58:34.550Z,100868.70
2023-06-05T22:01:04.702Z,100864.37
2023-06-05T22:03:34.435Z,100870.66
2023-06-05T22:06:04.058Z,100869.72
2023-06-05T22:08:34.033Z,100866.86
2023-06-05T22:11:04.011Z,100865.08
2023-06-05T22:13:33.908Z,100869.44
2023-06-05T22:16:02.762Z,100862.31
2023-06-05T22:18:31.946Z,100871.77
2023-06-05T22:21:01.758Z,100865.39
2023-06-05T22:23:30.652Z,100866.59
2023-06-05T22:26:00.064Z,100863.20
2023-06-05T22:28:29.515Z,100865.55
2023-06-05T22:30:59.183Z,100865.90
2023-06-05T22:33:30.453Z,100861.88
2023-06-05T22:35:59.675Z,100859.21
2023-06-05T22:38:28.680Z,100861.63
2023-06-05T22:40:58.283Z,100856.10
2023-06-05T22:43:28.514Z,100853.87
2023-06-05T22:45:57.203Z,100857.48
2023-06-05T22:48:27.504Z,100856.45
2023-06-05T22:50:56.813Z,100850.39
2023-06-05T22:53:25.680Z,100849.98
2023-06-05T22:55:54.730Z,100852.64
2023-06-05T22:58:23.563Z,100852.55
2023-06-05T23:00:55.493Z,100858.83
2023-06-05T23:03:24.088Z,100850.66
2023-06-05T23:05:53.310Z,100858.66
2023-06-05T23:08:23.444Z,100864.39
2023-06-05T23:10:52.955Z,100863.86
2023-06-05T23:13:22.683Z,100866.73
2023-06-05T23:15:53.517Z,100865.48
2023-06-05T23:18:23.219Z,100864.00
2023-06-05T23:20:51.719Z,100864.12
2023-06-05T23:23:22.001Z,100865.71
2023-06-05T23:25:50.487Z,100866.78
2023-06-05T23:28:20.591Z,100861.69
2023-06-05T23:30:49.428Z,100862.53
2023-06-05T23:33:18.200Z,100867.20
2023-06-05T23:35:46.794Z,100869.44
2023-06-05T23:38:16.029Z,100868.38
2023-06-05T23:40:50.730Z,100863.70
2023-06-05T23:43:20.500Z,100867.84
2023-06-05T23:45:49.127Z,100865.73
2023-06-05T23:48:18.325Z,100864.56
2023-06-05T23:50:46.889Z,100873.91
2023-06-05T23:53:16.040Z,100868.19
2023-06-05T23:55:45.021Z,100867.64
2023-06-05T23:58:13.906Z,100871.14
